Terminal Aerodrome Forecast
Issued by NWS

Home | Current Version | Previous Version | Text Only | Print | Product List | Glossary On
Versions: 1 2 3 4 5 6 7 8 9 10 11 12 13 14 15 16 17 18 19 20 21 22 23
000
FTUS43 KDLH 231600 AAB
TAFHYR
TAF AMD
KHYR 231602Z 2316/2412 22010KT P6SM BKN050 OVC070
      TEMPO 2316/2317 -FZRA
     FM231700 23010KT P6SM SCT050
     FM231900 26008KT P6SM OVC015=

USA.gov is the U.S. government's official web portal to all federal, state and local government web resources and services.